Time;durP1;ratioP1;P1;durP2;ratioP2;P2;SDS_P1;SDS_P2;PMS_P1;PMS_P2;Temp;Humidity;BMP_temperature;BMP_pressure;BME280_temperature;BME280_humidity;BME280_pressure;Samples;Min_cycle;Max_cycle;Signal;HPM_P1;HPM_P2
2023/06/06 00:05:40;;;;;;;3.30;2.50;;;;;;;-145.53;100.00;64590.91;6260032;28;20451;-63
2023/06/06 00:08:53;;;;;;;3.93;2.93;;;;;;;-145.53;100.00;64590.91;6252537;28;20431;-64
2023/06/06 00:12:04;;;;;;;2.50;2.30;;;;;;;-145.53;100.00;64590.91;6247467;28;20446;-64
2023/06/06 00:15:15;;;;;;;4.30;2.70;;;;;;;-145.53;100.00;64590.91;6269151;28;20472;-64
2023/06/06 00:18:25;;;;;;;2.80;2.60;;;;;;;-145.53;100.00;64590.91;6265567;28;20439;-64
2023/06/06 00:21:36;;;;;;;3.60;2.50;;;;;;;-145.53;100.00;64590.91;6261255;28;20444;-63
2023/06/06 00:24:52;;;;;;;3.10;2.60;;;;;;;-145.53;100.00;64590.91;6254798;28;20451;-63
2023/06/06 00:28:00;;;;;;;2.37;2.17;;;;;;;-145.53;100.00;64590.91;6259853;28;20765;-63
2023/06/06 00:31:10;;;;;;;3.53;2.40;;;;;;;-145.53;100.00;64590.91;6256259;28;20529;-63
2023/06/06 00:34:19;;;;;;;3.93;2.30;;;;;;;-145.53;100.00;64590.91;6262277;28;20463;-65
2023/06/06 00:37:31;;;;;;;2.90;1.90;;;;;;;-145.53;100.00;64590.91;6246168;28;20519;-64
2023/06/06 00:40:44;;;;;;;3.20;2.20;;;;;;;-145.53;100.00;64590.91;6266703;28;20439;-63
2023/06/06 00:43:54;;;;;;;3.30;2.10;;;;;;;-145.53;100.00;64590.91;6266767;28;20443;-64
2023/06/06 00:47:10;;;;;;;5.93;2.50;;;;;;;-145.53;100.00;64590.91;6259256;28;20443;-63
2023/06/06 00:50:18;;;;;;;4.20;2.03;;;;;;;-145.53;100.00;64590.91;6267443;28;20444;-63
2023/06/06 00:53:30;;;;;;;7.73;2.30;;;;;;;-145.53;100.00;64590.91;6270339;28;20917;-65
2023/06/06 00:56:42;;;;;;;2.60;2.10;;;;;;;-145.53;100.00;64590.91;6261658;28;20459;-64
2023/06/06 00:59:48;;;;;;;3.57;2.07;;;;;;;-145.53;100.00;64590.91;6241643;28;20443;-64
2023/06/06 01:02:54;;;;;;;4.17;2.30;;;;;;;-145.53;100.00;64590.91;6266666;28;20497;-63
2023/06/06 01:06:06;;;;;;;2.73;2.30;;;;;;;-145.53;100.00;64590.91;6268591;28;20454;-64
2023/06/06 01:09:16;;;;;;;3.00;2.10;;;;;;;-145.53;100.00;64590.91;6243986;28;20448;-64
2023/06/06 01:12:37;;;;;;;2.50;1.80;;;;;;;-145.53;100.00;64590.91;6257097;28;20518;-64
2023/06/06 01:15:53;;;;;;;2.07;1.87;;;;;;;-145.53;100.00;64590.91;6264049;28;20431;-64
2023/06/06 01:18:59;;;;;;;2.47;2.13;;;;;;;-145.53;100.00;64590.91;6259625;28;20519;-64
2023/06/06 01:22:13;;;;;;;3.50;1.90;;;;;;;-145.53;100.00;64590.91;6261453;28;20761;-64
2023/06/06 01:25:23;;;;;;;3.90;1.90;;;;;;;-145.53;100.00;64590.91;6251578;28;20444;-64
2023/06/06 01:28:32;;;;;;;1.90;1.70;;;;;;;-145.53;100.00;64590.91;6268124;28;20537;-64
2023/06/06 01:31:46;;;;;;;2.03;1.80;;;;;;;-145.53;100.00;64590.91;6256839;28;20451;-64
2023/06/06 01:35:03;;;;;;;2.90;1.90;;;;;;;-145.53;100.00;64590.91;6264742;28;20479;-64
2023/06/06 01:38:17;;;;;;;1.73;1.47;;;;;;;-145.53;100.00;64590.91;6257140;28;20503;-64
2023/06/06 01:41:32;;;;;;;3.43;1.67;;;;;;;-145.53;100.00;64590.91;6265240;28;20460;-64
2023/06/06 01:44:47;;;;;;;1.80;1.70;;;;;;;-145.53;100.00;64590.91;6245286;28;20461;-63
2023/06/06 01:47:56;;;;;;;2.83;1.60;;;;;;;-145.53;100.00;64590.91;6266547;28;20808;-64
2023/06/06 01:51:08;;;;;;;3.40;1.30;;;;;;;-145.53;100.00;64590.91;6255771;28;20520;-63
2023/06/06 01:54:21;;;;;;;2.40;1.73;;;;;;;-145.53;100.00;64590.91;6259753;28;20460;-64
2023/06/06 01:57:29;;;;;;;1.73;1.60;;;;;;;-145.53;100.00;64590.91;6259690;28;20456;-63
2023/06/06 02:00:33;;;;;;;1.93;1.67;;;;;;;-145.53;100.00;64590.91;6264106;28;20874;-64
2023/06/06 02:03:43;;;;;;;1.60;1.50;;;;;;;-145.53;100.00;64590.91;6264684;28;20458;-64
2023/06/06 02:06:56;;;;;;;3.73;1.60;;;;;;;-145.53;100.00;64590.91;6246617;28;20447;-64
2023/06/06 02:10:10;;;;;;;1.57;1.40;;;;;;;-145.53;100.00;64590.91;6264647;28;20435;-64
2023/06/06 02:13:22;;;;;;;1.93;1.77;;;;;;;-145.53;100.00;64590.91;6264308;28;20464;-64
2023/06/06 02:16:29;;;;;;;2.00;1.80;;;;;;;-145.53;100.00;64590.91;6257868;28;20925;-64
2023/06/06 02:19:39;;;;;;;2.57;1.50;;;;;;;-145.53;100.00;64590.91;6249718;28;20550;-64
2023/06/06 02:22:49;;;;;;;2.53;2.13;;;;;;;-145.53;100.00;64590.91;6261479;28;20859;-64
2023/06/06 02:26:07;;;;;;;3.10;1.73;;;;;;;-145.53;100.00;64590.91;6266016;28;20416;-64
2023/06/06 02:29:18;;;;;;;2.10;1.73;;;;;;;-145.53;100.00;64590.91;6242276;28;20503;-64
2023/06/06 02:32:26;;;;;;;2.13;1.40;;;;;;;-145.53;100.00;64590.91;6264908;28;20780;-64
2023/06/06 02:35:31;;;;;;;2.07;1.70;;;;;;;-145.53;100.00;64590.91;6251857;28;20789;-64
2023/06/06 02:38:36;;;;;;;1.93;1.73;;;;;;;-145.53;100.00;64590.91;6263445;28;20792;-64
2023/06/06 02:41:45;;;;;;;1.70;1.60;;;;;;;-145.53;100.00;64590.91;6251062;28;20471;-64
2023/06/06 02:44:52;;;;;;;2.67;1.73;;;;;;;-145.53;100.00;64590.91;6260927;28;20509;-63
2023/06/06 02:48:05;;;;;;;2.57;1.47;;;;;;;-145.53;100.00;64590.91;6271813;28;20837;-63
2023/06/06 02:51:10;;;;;;;1.70;1.47;;;;;;;-145.53;100.00;64590.91;6257454;28;20537;-65
2023/06/06 02:54:19;;;;;;;3.60;1.87;;;;;;;-145.53;100.00;64590.91;6254996;28;20443;-64
2023/06/06 02:57:30;;;;;;;2.50;1.73;;;;;;;-145.53;100.00;64590.91;6254532;28;20428;-63
2023/06/06 03:00:38;;;;;;;3.20;2.00;;;;;;;-145.53;100.00;64590.91;6260615;28;20538;-63
2023/06/06 03:03:45;;;;;;;3.20;2.23;;;;;;;-145.53;100.00;64590.91;6241025;28;20482;-64
2023/06/06 03:06:54;;;;;;;3.17;2.87;;;;;;;-145.53;100.00;64590.91;6246439;28;20459;-65
2023/06/06 03:10:05;;;;;;;6.77;6.17;;;;;;;-145.53;100.00;64590.91;6250632;28;20432;-63
2023/06/06 03:13:13;;;;;;;4.97;4.40;;;;;;;-145.53;100.00;64590.91;6255243;28;20489;-63
2023/06/06 03:16:20;;;;;;;5.60;5.00;;;;;;;-145.53;100.00;64590.91;6247203;28;20440;-63
2023/06/06 03:19:30;;;;;;;13.30;12.10;;;;;;;-145.53;100.00;64590.91;6260535;28;20931;-64
2023/06/06 03:22:37;;;;;;;8.53;7.50;;;;;;;-145.53;100.00;64590.91;6250938;28;20917;-63
2023/06/06 03:25:45;;;;;;;6.37;5.80;;;;;;;-145.53;100.00;64590.91;6251366;28;20438;-65
2023/06/06 03:28:51;;;;;;;6.50;5.90;;;;;;;-145.53;100.00;64590.91;6259770;28;20455;-65
2023/06/06 03:31:57;;;;;;;5.90;5.30;;;;;;;-145.53;100.00;64590.91;6264518;28;20432;-64
2023/06/06 03:35:04;;;;;;;6.23;5.63;;;;;;;-145.53;100.00;64590.91;6260984;28;20444;-64
2023/06/06 03:38:11;;;;;;;12.07;10.90;;;;;;;-145.53;100.00;64590.91;6247605;28;20510;-63
2023/06/06 03:41:17;;;;;;;11.87;10.67;;;;;;;-145.53;100.00;64590.91;6267372;28;20439;-64
2023/06/06 03:44:31;;;;;;;14.70;11.77;;;;;;;-145.53;100.00;64590.91;6268514;28;20432;-64
2023/06/06 03:47:40;;;;;;;10.47;9.47;;;;;;;-145.53;100.00;64590.91;6271263;28;20913;-64
2023/06/06 03:50:52;;;;;;;10.37;7.93;;;;;;;-145.53;100.00;64590.91;6255587;28;20939;-64
2023/06/06 03:54:02;;;;;;;9.50;8.60;;;;;;;-145.53;100.00;64590.91;6266804;28;20446;-64
2023/06/06 03:57:10;;;;;;;11.53;7.87;;;;;;;-145.53;100.00;64590.91;6254176;28;20424;-64
2023/06/06 04:00:21;;;;;;;8.80;7.40;;;;;;;-145.53;100.00;64590.91;6252532;28;20515;-66
2023/06/06 04:03:36;;;;;;;7.07;5.97;;;;;;;-145.53;100.00;64590.91;6264173;28;20435;-66
2023/06/06 04:06:48;;;;;;;6.83;5.70;;;;;;;-145.53;100.00;64590.91;6259476;28;20515;-64
2023/06/06 04:09:59;;;;;;;9.27;7.80;;;;;;;-145.53;100.00;64590.91;6260015;28;20654;-63
2023/06/06 04:13:08;;;;;;;8.70;6.50;;;;;;;-145.53;100.00;64590.91;6241969;28;20523;-64
2023/06/06 04:16:18;;;;;;;9.90;6.90;;;;;;;-145.53;100.00;64590.91;6268211;28;20950;-71
2023/06/06 04:19:31;;;;;;;8.30;5.23;;;;;;;-145.53;100.00;64590.91;6262697;28;20443;-67
2023/06/06 04:22:41;;;;;;;8.63;4.77;;;;;;;-145.53;100.00;64590.91;6259554;28;20481;-63
2023/06/06 04:25:52;;;;;;;9.10;4.97;;;;;;;-145.53;100.00;64590.91;6256767;28;20984;-62
2023/06/06 04:28:58;;;;;;;10.27;8.13;;;;;;;-145.53;100.00;64590.91;6268277;28;20475;-62
2023/06/06 04:32:18;;;;;;;12.77;11.53;;;;;;;-145.53;100.00;64590.91;6250983;28;20425;-62
2023/06/06 04:35:26;;;;;;;7.27;6.67;;;;;;;-145.53;100.00;64590.91;6247169;28;20440;-62
2023/06/06 04:38:33;;;;;;;9.33;6.07;;;;;;;-145.53;100.00;64590.91;6264591;28;20424;-62
2023/06/06 04:41:43;;;;;;;6.87;6.27;;;;;;;-145.53;100.00;64590.91;6260261;28;20448;-62
2023/06/06 04:45:00;;;;;;;10.50;7.70;;;;;;;-145.53;100.00;64590.91;6251748;28;20443;-62
2023/06/06 04:48:12;;;;;;;7.20;6.50;;;;;;;-145.53;100.00;64590.91;6263046;28;20462;-62
2023/06/06 04:51:18;;;;;;;7.90;7.20;;;;;;;-145.53;100.00;64590.91;6253262;28;20481;-62
2023/06/06 04:54:25;;;;;;;7.30;6.03;;;;;;;-145.53;100.00;64590.91;6270873;28;20471;-62
2023/06/06 04:57:29;;;;;;;6.80;5.37;;;;;;;-145.53;100.00;64590.91;6264166;28;20519;-63
2023/06/06 05:00:38;;;;;;;11.67;10.60;;;;;;;-145.53;100.00;64590.91;6250454;28;20446;-62
2023/06/06 05:03:45;;;;;;;16.13;14.53;;;;;;;-145.53;100.00;64590.91;6270794;28;20458;-62
2023/06/06 05:06:50;;;;;;;10.53;9.43;;;;;;;-145.53;100.00;64590.91;6273131;28;20431;-68
2023/06/06 05:09:59;;;;;;;12.20;7.33;;;;;;;-145.53;100.00;64590.91;6259685;28;20448;-68
2023/06/06 05:13:05;;;;;;;6.60;6.00;;;;;;;-145.53;100.00;64590.91;6267332;28;20549;-69
2023/06/06 05:16:11;;;;;;;6.63;6.03;;;;;;;-145.53;100.00;64590.91;6267749;28;20631;-70
2023/06/06 05:19:19;;;;;;;33.37;7.80;;;;;;;-145.53;100.00;64590.91;6258651;28;20532;-69
2023/06/06 05:22:26;;;;;;;34.87;8.70;;;;;;;-145.53;100.00;64590.91;6238845;28;20532;-70
2023/06/06 05:25:35;;;;;;;21.97;7.13;;;;;;;-145.53;100.00;64590.91;6255143;28;20435;-67
2023/06/06 05:28:45;;;;;;;26.67;8.80;;;;;;;-145.53;100.00;64590.91;6263375;28;20442;-69
2023/06/06 05:31:52;;;;;;;18.60;12.03;;;;;;;-145.53;100.00;64590.91;6250572;28;20444;-67
2023/06/06 05:35:01;;;;;;;21.60;9.20;;;;;;;-145.53;100.00;64590.91;6256072;28;20524;-69
2023/06/06 05:38:12;;;;;;;18.70;9.97;;;;;;;-145.53;100.00;64590.91;6267441;28;20443;-70
2023/06/06 05:41:19;;;;;;;13.73;9.57;;;;;;;-145.53;100.00;64590.91;6254989;28;20459;-69
2023/06/06 05:44:23;;;;;;;11.80;9.73;;;;;;;-145.53;100.00;64590.91;6255248;28;20925;-69
2023/06/06 05:47:28;;;;;;;13.50;9.30;;;;;;;-145.53;100.00;64590.91;6270985;28;20439;-68
2023/06/06 05:50:35;;;;;;;10.93;9.00;;;;;;;-145.53;100.00;64590.91;6258709;28;20446;-70
2023/06/06 05:53:44;;;;;;;14.37;8.90;;;;;;;-145.53;100.00;64590.91;6264482;28;20440;-67
2023/06/06 05:56:52;;;;;;;8.60;7.50;;;;;;;-145.53;100.00;64590.91;6248185;28;20498;-62
2023/06/06 06:00:00;;;;;;;11.97;6.97;;;;;;;-145.53;100.00;64590.91;6255506;28;20468;-62
2023/06/06 06:03:07;;;;;;;7.93;5.57;;;;;;;-145.53;100.00;64590.91;6258868;28;20526;-63
2023/06/06 06:06:13;;;;;;;8.53;6.60;;;;;;;-145.53;100.00;64590.91;6248402;28;20932;-63
2023/06/06 06:09:19;;;;;;;11.50;7.67;;;;;;;-145.53;100.00;64590.91;6260299;28;20439;-63
2023/06/06 06:12:28;;;;;;;11.97;8.33;;;;;;;-145.53;100.00;64590.91;6266900;28;20450;-66
2023/06/06 06:15:37;;;;;;;10.53;9.50;;;;;;;-145.53;100.00;64590.91;6258585;28;20478;-66
2023/06/06 06:18:43;;;;;;;11.37;8.37;;;;;;;-145.53;100.00;64590.91;6242076;28;20515;-65
2023/06/06 06:21:51;;;;;;;8.13;7.33;;;;;;;-145.53;100.00;64590.91;6265832;28;20439;-67
2023/06/06 06:24:56;;;;;;;6.20;3.83;;;;;;;-145.53;100.00;64590.91;6265037;28;20463;-66
2023/06/06 06:28:03;;;;;;;5.07;3.63;;;;;;;-145.53;100.00;64590.91;6248680;28;20436;-66
2023/06/06 06:31:09;;;;;;;3.97;2.93;;;;;;;-145.53;100.00;64590.91;6258020;28;20952;-65
2023/06/06 06:34:15;;;;;;;3.90;2.47;;;;;;;-145.53;100.00;64590.91;6260571;28;20462;-66
2023/06/06 06:37:26;;;;;;;3.60;2.30;;;;;;;-145.53;100.00;64590.91;6267281;28;20504;-67
2023/06/06 06:40:34;;;;;;;2.93;2.20;;;;;;;-145.53;100.00;64590.91;6253750;28;20533;-66
2023/06/06 06:43:41;;;;;;;3.33;2.30;;;;;;;-145.53;100.00;64590.91;6253489;28;20539;-69
2023/06/06 06:46:55;;;;;;;4.23;2.50;;;;;;;-145.53;100.00;64590.91;6257773;28;20436;-68
2023/06/06 06:50:01;;;;;;;3.20;2.43;;;;;;;-145.53;100.00;64590.91;6259032;28;20443;-67
2023/06/06 06:53:13;;;;;;;4.00;2.50;;;;;;;-145.53;100.00;64590.91;6247494;28;20940;-68
2023/06/06 06:56:18;;;;;;;2.63;2.43;;;;;;;-145.53;100.00;64590.91;6265230;28;20447;-68
2023/06/06 06:59:26;;;;;;;6.43;2.60;;;;;;;-145.53;100.00;64590.91;6265529;28;20443;-68
2023/06/06 07:02:30;;;;;;;3.97;1.90;;;;;;;-145.53;100.00;64590.91;6263945;28;20450;-67
2023/06/06 07:05:36;;;;;;;4.40;2.83;;;;;;;-145.53;100.00;64590.91;6254470;28;20563;-68
2023/06/06 07:08:45;;;;;;;3.43;2.30;;;;;;;-145.53;100.00;64590.91;6260339;28;20527;-68
2023/06/06 07:11:54;;;;;;;3.93;2.70;;;;;;;-145.53;100.00;64590.91;6267312;28;20506;-69
2023/06/06 07:15:05;;;;;;;2.90;2.20;;;;;;;-145.53;100.00;64590.91;6242283;28;20451;-68
2023/06/06 07:18:12;;;;;;;3.17;2.23;;;;;;;-145.53;100.00;64590.91;6262859;28;20426;-67
2023/06/06 07:21:17;;;;;;;2.53;2.30;;;;;;;-145.53;100.00;64590.91;6270614;28;20439;-68
2023/06/06 07:24:26;;;;;;;6.23;5.73;;;;;;;-145.53;100.00;64590.91;6257635;28;20528;-68
2023/06/06 07:27:36;;;;;;;4.17;3.87;;;;;;;-145.53;100.00;64590.91;6251093;28;20490;-68
2023/06/06 07:30:44;;;;;;;5.20;3.77;;;;;;;-145.53;100.00;64590.91;6264546;28;20446;-68
2023/06/06 07:33:49;;;;;;;3.20;2.60;;;;;;;-145.53;100.00;64590.91;6258516;28;20530;-70
2023/06/06 07:36:52;;;;;;;12.70;3.80;;;;;;;-145.53;100.00;64590.91;6247703;28;20524;-68
2023/06/06 07:39:58;;;;;;;4.83;2.50;;;;;;;-145.53;100.00;64590.91;6264525;28;20580;-67
2023/06/06 07:43:02;;;;;;;3.13;2.13;;;;;;;-145.53;100.00;64590.91;6267056;28;20441;-69
2023/06/06 07:46:07;;;;;;;2.90;2.57;;;;;;;-145.53;100.00;64590.91;6263394;28;20466;-69
2023/06/06 07:49:13;;;;;;;6.70;2.80;;;;;;;-145.53;100.00;64590.91;6247731;28;20522;-69
2023/06/06 07:52:18;;;;;;;3.80;2.13;;;;;;;-145.53;100.00;64590.91;6261419;28;20454;-69
2023/06/06 07:55:25;;;;;;;8.17;2.63;;;;;;;-145.53;100.00;64590.91;6256152;28;20912;-69
2023/06/06 07:58:41;;;;;;;8.00;3.17;;;;;;;-145.53;100.00;64590.91;6252380;28;20462;-69
2023/06/06 08:01:46;;;;;;;5.20;3.10;;;;;;;-145.53;100.00;64590.91;6256353;28;20535;-69
2023/06/06 08:04:52;;;;;;;6.63;3.13;;;;;;;-145.53;100.00;64590.91;6261438;28;20438;-69
2023/06/06 08:07:58;;;;;;;4.90;3.67;;;;;;;-145.53;100.00;64590.91;6262120;28;20933;-68
2023/06/06 08:11:10;;;;;;;3.67;3.37;;;;;;;-145.53;100.00;64590.91;6247461;28;20538;-69
2023/06/06 08:14:16;;;;;;;3.23;2.93;;;;;;;-145.53;100.00;64590.91;6258908;28;20666;-69
2023/06/06 08:17:22;;;;;;;3.20;2.93;;;;;;;-145.53;100.00;64590.91;6263892;28;20932;-68
2023/06/06 08:20:28;;;;;;;2.90;2.70;;;;;;;-145.53;100.00;64590.91;6259875;28;20459;-69
2023/06/06 08:23:33;;;;;;;2.93;2.47;;;;;;;-145.53;100.00;64590.91;6253839;28;20526;-70
2023/06/06 08:26:40;;;;;;;2.50;2.30;;;;;;;-145.53;100.00;64590.91;6265418;28;20440;-69
2023/06/06 08:29:44;;;;;;;4.13;2.80;;;;;;;-145.53;100.00;64590.91;6261859;28;20928;-71
2023/06/06 08:32:50;;;;;;;4.30;2.80;;;;;;;-145.53;100.00;64590.91;6262726;28;20447;-68
2023/06/06 08:35:59;;;;;;;7.70;2.73;;;;;;;-145.53;100.00;64590.91;6263619;28;20930;-68
2023/06/06 08:39:13;;;;;;;8.63;3.43;;;;;;;-145.53;100.00;64590.91;6262955;28;20952;-74
2023/06/06 08:42:27;;;;;;;5.30;3.40;;;;;;;-145.53;100.00;64590.91;6266428;28;20932;-69
2023/06/06 08:45:37;;;;;;;8.53;3.30;;;;;;;-145.53;100.00;64590.91;6259877;28;20443;-71
2023/06/06 08:48:44;;;;;;;5.70;3.27;;;;;;;-145.53;100.00;64590.91;6265869;28;20439;-69
2023/06/06 08:51:53;;;;;;;6.87;4.10;;;;;;;-145.53;100.00;64590.91;6256158;28;20428;-68
2023/06/06 08:55:01;;;;;;;7.00;4.53;;;;;;;-145.53;100.00;64590.91;6249006;28;20420;-69
2023/06/06 08:58:11;;;;;;;6.17;3.60;;;;;;;-145.53;100.00;64590.91;6249318;28;20443;-70
2023/06/06 09:01:16;;;;;;;8.27;3.23;;;;;;;-145.53;100.00;64590.91;6251709;28;20527;-68
2023/06/06 09:04:23;;;;;;;9.17;3.80;;;;;;;-145.53;100.00;64590.91;6262078;28;20463;-69
2023/06/06 09:07:28;;;;;;;19.30;4.00;;;;;;;-145.53;100.00;64590.91;6247708;28;20472;-69
2023/06/06 09:10:32;;;;;;;11.13;3.77;;;;;;;-145.53;100.00;64590.91;6266920;28;20439;-71
2023/06/06 09:13:43;;;;;;;16.63;4.57;;;;;;;-145.53;100.00;64590.91;6253584;28;20470;-71
2023/06/06 09:16:54;;;;;;;12.53;4.10;;;;;;;-145.53;100.00;64590.91;6254818;28;20956;-69
2023/06/06 09:20:00;;;;;;;15.23;4.63;;;;;;;-145.53;100.00;64590.91;6249162;28;20459;-68
2023/06/06 09:23:12;;;;;;;16.80;4.33;;;;;;;-145.53;100.00;64590.91;6261062;28;20950;-71
2023/06/06 09:26:26;;;;;;;16.47;3.70;;;;;;;-145.53;100.00;64590.91;6259369;28;20433;-68
2023/06/06 09:29:42;;;;;;;19.93;3.93;;;;;;;-145.53;100.00;64590.91;6252460;28;20443;-64
2023/06/06 09:32:56;;;;;;;11.13;4.20;;;;;;;-145.53;100.00;64590.91;6263149;28;20487;-67
2023/06/06 09:36:09;;;;;;;15.57;3.93;;;;;;;-145.53;100.00;64590.91;6256077;28;20458;-70
2023/06/06 09:39:20;;;;;;;23.07;6.00;;;;;;;-145.53;100.00;64590.91;6272890;28;20538;-70
2023/06/06 09:42:31;;;;;;;17.93;6.13;;;;;;;-145.53;100.00;64590.91;6244637;28;20468;-70
2023/06/06 09:45:38;;;;;;;8.63;4.90;;;;;;;-145.53;100.00;64590.91;6260058;28;20455;-69
2023/06/06 09:48:43;;;;;;;9.40;5.30;;;;;;;-145.53;100.00;64590.91;6269148;28;20923;-70
2023/06/06 09:51:54;;;;;;;15.50;5.10;;;;;;;-145.53;100.00;64590.91;6272561;28;20567;-70
2023/06/06 09:55:00;;;;;;;12.57;4.53;;;;;;;-145.53;100.00;64590.91;6262107;28;20451;-70
2023/06/06 09:58:16;;;;;;;7.90;4.60;;;;;;;-145.53;100.00;64590.91;6268940;28;20475;-70
2023/06/06 10:01:31;;;;;;;7.20;4.20;;;;;;;-145.53;100.00;64590.91;6258086;28;20470;-70
2023/06/06 10:04:43;;;;;;;8.10;5.43;;;;;;;-145.53;100.00;64590.91;6260967;28;20940;-69
2023/06/06 10:07:52;;;;;;;8.60;4.13;;;;;;;-145.53;100.00;64590.91;6262293;28;20432;-70
2023/06/06 10:10:57;;;;;;;12.30;4.43;;;;;;;-145.53;100.00;64590.91;6256371;28;20447;-71
2023/06/06 10:14:02;;;;;;;22.80;6.00;;;;;;;-145.53;100.00;64590.91;6262317;28;20913;-70
2023/06/06 10:17:10;;;;;;;20.67;5.03;;;;;;;-145.53;100.00;64590.91;6244045;28;20901;-69
2023/06/06 10:20:16;;;;;;;14.67;3.57;;;;;;;-145.53;100.00;64590.91;6259333;28;20435;-70
2023/06/06 10:23:24;;;;;;;16.50;4.20;;;;;;;-145.53;100.00;64590.91;6267753;28;20865;-68
2023/06/06 10:26:33;;;;;;;11.87;4.00;;;;;;;-145.53;100.00;64590.91;6257797;28;20963;-67
2023/06/06 10:29:48;;;;;;;10.13;3.57;;;;;;;-145.53;100.00;64590.91;6252096;28;20523;-69
2023/06/06 10:33:07;;;;;;;5.17;3.33;;;;;;;-145.53;100.00;64590.91;6253534;28;20540;-69
2023/06/06 10:36:19;;;;;;;7.40;4.13;;;;;;;-145.53;100.00;64590.91;6254307;28;20428;-69
2023/06/06 10:39:31;;;;;;;8.67;3.70;;;;;;;-145.53;100.00;64590.91;6246947;28;20864;-70
2023/06/06 10:42:37;;;;;;;11.43;3.77;;;;;;;-145.53;100.00;64590.91;6257063;28;20442;-68
2023/06/06 10:45:45;;;;;;;7.60;3.63;;;;;;;-145.53;100.00;64590.91;6260747;28;20942;-69
2023/06/06 10:48:59;;;;;;;6.83;3.30;;;;;;;-145.53;100.00;64590.91;6264327;28;20454;-68
2023/06/06 10:52:06;;;;;;;14.03;3.60;;;;;;;-145.53;100.00;64590.91;6255486;28;20435;-68
2023/06/06 10:55:15;;;;;;;11.80;3.53;;;;;;;-145.53;100.00;64590.91;6258746;28;20534;-69
2023/06/06 10:58:23;;;;;;;9.90;3.73;;;;;;;-145.53;100.00;64590.91;6247186;28;20475;-68
2023/06/06 11:01:28;;;;;;;19.13;4.40;;;;;;;-145.53;100.00;64590.91;6249797;28;20451;-68
2023/06/06 11:04:42;;;;;;;12.47;3.97;;;;;;;-145.53;100.00;64590.91;6262094;28;20964;-68
2023/06/06 11:07:51;;;;;;;10.30;3.77;;;;;;;-145.53;100.00;64590.91;6253816;28;20436;-67
2023/06/06 11:11:19;;;;;;;11.83;4.70;;;;;;;-145.53;100.00;64590.91;6256394;28;20440;-69
2023/06/06 11:14:26;;;;;;;11.73;4.60;;;;;;;-145.53;100.00;64590.91;6246641;28;20916;-68
2023/06/06 11:17:44;;;;;;;17.90;5.20;;;;;;;-145.53;100.00;64590.91;6256634;28;20943;-68
2023/06/06 11:20:54;;;;;;;12.50;4.60;;;;;;;-145.53;100.00;64590.91;6255988;28;20947;-67
2023/06/06 11:24:02;;;;;;;15.43;5.93;;;;;;;-145.53;100.00;64590.91;6249132;28;20452;-67
2023/06/06 11:27:11;;;;;;;17.00;4.60;;;;;;;-145.53;100.00;64590.91;6253766;28;20447;-68
2023/06/06 11:30:17;;;;;;;19.57;5.63;;;;;;;-145.53;100.00;64590.91;6264388;28;20797;-68
2023/06/06 11:33:25;;;;;;;9.40;5.00;;;;;;;-145.53;100.00;64590.91;6260366;28;20431;-68
2023/06/06 11:36:33;;;;;;;13.80;5.40;;;;;;;-145.53;100.00;64590.91;6242650;28;20454;-69
2023/06/06 11:39:40;;;;;;;9.17;4.57;;;;;;;-145.53;100.00;64590.91;6254865;28;20545;-69
2023/06/06 11:42:48;;;;;;;14.87;4.50;;;;;;;-145.53;100.00;64590.91;6266796;28;20442;-66
2023/06/06 11:46:04;;;;;;;11.40;4.50;;;;;;;-145.53;100.00;64590.91;5358199;28;10000656;-68
2023/06/06 11:49:14;;;;;;;12.97;5.10;;;;;;;-145.53;100.00;64590.91;6198930;28;20236;-69
2023/06/06 11:52:27;;;;;;;8.57;4.47;;;;;;;-145.53;100.00;64590.91;6219981;28;20951;-70
2023/06/06 11:55:43;;;;;;;12.40;4.60;;;;;;;-145.53;100.00;64590.91;6208951;28;20491;-68
2023/06/06 11:58:51;;;;;;;9.77;4.60;;;;;;;-145.53;100.00;64590.91;6214763;28;20445;-69
2023/06/06 12:01:58;;;;;;;9.93;4.43;;;;;;;-145.53;100.00;64590.91;6224903;28;20427;-68
2023/06/06 12:05:08;;;;;;;10.27;5.27;;;;;;;-145.53;100.00;64590.91;6217269;28;20459;-67
2023/06/06 12:08:19;;;;;;;10.83;4.90;;;;;;;-145.53;100.00;64590.91;6219588;28;20535;-69
2023/06/06 12:11:29;;;;;;;12.43;4.50;;;;;;;-145.53;100.00;64590.91;6202882;28;20593;-69
2023/06/06 12:14:35;;;;;;;16.87;5.33;;;;;;;-145.53;100.00;64590.91;6224820;28;20440;-66
2023/06/06 12:17:40;;;;;;;18.63;4.70;;;;;;;-145.53;100.00;64590.91;6225591;28;20433;-69
2023/06/06 12:20:47;;;;;;;4.33;3.93;;;;;;;-145.53;100.00;64590.91;6210300;28;20437;-67
2023/06/06 12:23:57;;;;;;;5.87;3.50;;;;;;;-145.53;100.00;64590.91;6217131;28;20433;-68
2023/06/06 12:27:04;;;;;;;8.70;3.17;;;;;;;-145.53;100.00;64590.91;6243437;28;20491;-69
2023/06/06 12:30:14;;;;;;;5.10;3.10;;;;;;;-145.53;100.00;64590.91;6225481;28;20429;-68
2023/06/06 12:33:22;;;;;;;9.07;3.33;;;;;;;-145.53;100.00;64590.91;6205294;28;20453;-69
2023/06/06 12:36:28;;;;;;;8.60;3.00;;;;;;;-145.53;100.00;64590.91;6227674;28;20502;-69
2023/06/06 12:39:41;;;;;;;5.50;3.60;;;;;;;-145.53;100.00;64590.91;6224265;28;20436;-70
2023/06/06 12:42:53;;;;;;;4.40;3.33;;;;;;;-145.53;100.00;64590.91;6226035;28;20468;-69
2023/06/06 12:45:59;;;;;;;3.50;2.73;;;;;;;-145.53;100.00;64590.91;6210956;28;20428;-70
2023/06/06 12:49:05;;;;;;;4.20;2.80;;;;;;;-145.53;100.00;64590.91;6230822;28;20519;-69
2023/06/06 12:52:11;;;;;;;2.67;2.47;;;;;;;-145.53;100.00;64590.91;6226336;28;20456;-69
2023/06/06 12:55:22;;;;;;;5.50;2.40;;;;;;;-145.53;100.00;64590.91;6218880;28;20906;-68
2023/06/06 12:58:31;;;;;;;3.67;2.90;;;;;;;-145.53;100.00;64590.91;6214061;28;20442;-69
2023/06/06 13:01:36;;;;;;;4.23;3.10;;;;;;;-145.53;100.00;64590.91;6236329;28;21002;-68
2023/06/06 13:04:44;;;;;;;6.87;3.37;;;;;;;-145.53;100.00;64590.91;6231240;28;20456;-69
2023/06/06 13:07:48;;;;;;;7.90;3.20;;;;;;;-145.53;100.00;64590.91;6213719;28;22212;-68
2023/06/06 13:10:57;;;;;;;5.63;2.83;;;;;;;-145.53;100.00;64590.91;6233699;28;20457;-67
2023/06/06 13:14:01;;;;;;;5.30;2.90;;;;;;;-145.53;100.00;64590.91;6226842;28;20513;-68
2023/06/06 13:17:07;;;;;;;4.17;2.37;;;;;;;-145.53;100.00;64590.91;6214595;28;20517;-68
2023/06/06 13:20:19;;;;;;;3.73;3.43;;;;;;;-145.53;100.00;64590.91;6188991;28;20783;-68
2023/06/06 13:23:26;;;;;;;4.37;3.43;;;;;;;-145.53;100.00;64590.91;6219274;28;20438;-68
2023/06/06 13:26:34;;;;;;;6.00;2.60;;;;;;;-145.53;100.00;64590.91;6217916;28;20523;-66
2023/06/06 13:29:39;;;;;;;3.50;3.00;;;;;;;-145.53;100.00;64590.91;6214812;28;20440;-65
2023/06/06 13:32:42;;;;;;;4.53;3.00;;;;;;;-145.53;100.00;64590.91;6204280;28;20441;-69
2023/06/06 13:35:46;;;;;;;2.60;2.40;;;;;;;-145.53;100.00;64590.91;6216259;28;20441;-68
2023/06/06 13:50:43;;;;;;;7.00;3.37;;;;;;;;;;6412307;27;20561;-60
2023/06/06 13:53:46;;;;;;;3.83;2.97;;;;;;;;;;6392515;27;20433;-60
2023/06/06 13:56:49;;;;;;;4.10;2.80;;;;;;;;;;6397859;27;20438;-60
2023/06/06 13:59:52;;;;;;;4.70;3.63;;;;;;;;;;6400087;27;20443;-60
2023/06/06 14:02:55;;;;;;;3.77;3.20;;;;;;;;;;6409117;27;20430;-60
2023/06/06 14:06:00;;;;;;;7.37;3.40;;;;;;;;;;6398161;27;20956;-60
2023/06/06 14:09:03;;;;;;;4.00;3.20;;;;;;;;;;6399138;27;20435;-61
2023/06/06 14:12:07;;;;;;;3.67;3.33;;;;;;;;;;6403837;27;20446;-60
2023/06/06 14:15:11;;;;;;;4.90;3.50;;;;;;;;;;6393795;27;20430;-60
2023/06/06 14:18:13;;;;;;;4.50;3.67;;;;;;;;;;6382714;27;20976;-60
2023/06/06 14:21:38;;;;;;;4.53;2.90;;;;;;;;;;6394074;27;20434;-61
2023/06/06 14:24:41;;;;;;;5.97;3.30;;;;;;;;;;6391954;27;20436;-60
2023/06/06 14:27:44;;;;;;;13.00;3.50;;;;;;;;;;6389597;27;20431;-60
2023/06/06 14:30:47;;;;;;;5.03;3.53;;;;;;;;;;6379822;27;20955;-60
2023/06/06 14:33:50;;;;;;;4.30;3.43;;;;;;;;;;6380352;27;20430;-60
2023/06/06 14:36:55;;;;;;;3.67;3.37;;;;;;;;;;6393320;27;20433;-59
2023/06/06 14:39:58;;;;;;;3.70;3.33;;;;;;;;;;6378935;27;20458;-61
2023/06/06 14:43:02;;;;;;;3.83;3.10;;;;;;;;;;6386623;27;20442;-60
2023/06/06 14:46:05;;;;;;;3.50;3.20;;;;;;;;;;6393280;27;20442;-59